sensor_id;sensor_type;location;lat;lon;timestamp;P1;durP1;ratioP1;P2;durP2;ratioP2
79670;SDS011;69137;50.878;8.050;2024-01-16T00:01:04;9.93;;;5.80;;
79670;SDS011;69137;50.878;8.050;2024-01-16T00:03:29;18.77;;;6.00;;
79670;SDS011;69137;50.878;8.050;2024-01-16T00:05:54;8.93;;;5.90;;
79670;SDS011;69137;50.878;8.050;2024-01-16T00:08:20;7.30;;;5.30;;
79670;SDS011;69137;50.878;8.050;2024-01-16T00:10:45;9.67;;;6.23;;
79670;SDS011;69137;50.878;8.050;2024-01-16T00:13:10;12.02;;;5.22;;
79670;SDS011;69137;50.878;8.050;2024-01-16T00:15:36;7.38;;;5.35;;
79670;SDS011;69137;50.878;8.050;2024-01-16T00:18:01;13.67;;;5.93;;
79670;SDS011;69137;50.878;8.050;2024-01-16T00:20:27;10.07;;;6.07;;
79670;SDS011;69137;50.878;8.050;2024-01-16T00:22:52;17.67;;;4.80;;
79670;SDS011;69137;50.878;8.050;2024-01-16T00:25:17;13.93;;;5.27;;
79670;SDS011;69137;50.878;8.050;2024-01-16T00:27:45;14.07;;;6.00;;
79670;SDS011;69137;50.878;8.050;2024-01-16T00:30:11;13.57;;;5.22;;
79670;SDS011;69137;50.878;8.050;2024-01-16T00:32:36;9.48;;;5.05;;
79670;SDS011;69137;50.878;8.050;2024-01-16T00:35:02;8.57;;;4.33;;
79670;SDS011;69137;50.878;8.050;2024-01-16T00:37:27;11.48;;;5.63;;
79670;SDS011;69137;50.878;8.050;2024-01-16T00:39:53;8.17;;;5.03;;
79670;SDS011;69137;50.878;8.050;2024-01-16T00:42:18;8.63;;;5.77;;
79670;SDS011;69137;50.878;8.050;2024-01-16T00:44:43;8.93;;;5.57;;
79670;SDS011;69137;50.878;8.050;2024-01-16T00:47:09;14.67;;;5.80;;
79670;SDS011;69137;50.878;8.050;2024-01-16T00:49:35;9.40;;;5.63;;
79670;SDS011;69137;50.878;8.050;2024-01-16T00:52:00;11.73;;;5.63;;
79670;SDS011;69137;50.878;8.050;2024-01-16T00:54:25;11.20;;;6.17;;
79670;SDS011;69137;50.878;8.050;2024-01-16T00:56:51;7.60;;;5.43;;
79670;SDS011;69137;50.878;8.050;2024-01-16T00:59:20;11.35;;;5.85;;
79670;SDS011;69137;50.878;8.050;2024-01-16T01:01:45;8.57;;;4.60;;
79670;SDS011;69137;50.878;8.050;2024-01-16T01:04:10;7.87;;;4.30;;
79670;SDS011;69137;50.878;8.050;2024-01-16T01:06:36;7.00;;;4.80;;
79670;SDS011;69137;50.878;8.050;2024-01-16T01:09:01;8.93;;;5.78;;
79670;SDS011;69137;50.878;8.050;2024-01-16T01:11:27;9.48;;;5.57;;
79670;SDS011;69137;50.878;8.050;2024-01-16T01:13:53;10.23;;;5.27;;
79670;SDS011;69137;50.878;8.050;2024-01-16T01:16:18;6.07;;;4.47;;
79670;SDS011;69137;50.878;8.050;2024-01-16T01:18:43;10.27;;;4.67;;
79670;SDS011;69137;50.878;8.050;2024-01-16T01:21:09;8.20;;;4.93;;
79670;SDS011;69137;50.878;8.050;2024-01-16T01:23:34;8.83;;;4.67;;
79670;SDS011;69137;50.878;8.050;2024-01-16T01:25:59;7.83;;;4.33;;
79670;SDS011;69137;50.878;8.050;2024-01-16T01:28:25;9.02;;;5.28;;
79670;SDS011;69137;50.878;8.050;2024-01-16T01:30:50;5.60;;;4.23;;
79670;SDS011;69137;50.878;8.050;2024-01-16T01:33:15;7.87;;;4.80;;
79670;SDS011;69137;50.878;8.050;2024-01-16T01:35:41;7.07;;;4.85;;
79670;SDS011;69137;50.878;8.050;2024-01-16T01:38:06;16.67;;;6.33;;
79670;SDS011;69137;50.878;8.050;2024-01-16T01:40:33;9.18;;;5.65;;
79670;SDS011;69137;50.878;8.050;2024-01-16T01:43:16;9.82;;;6.28;;
79670;SDS011;69137;50.878;8.050;2024-01-16T01:45:42;15.77;;;8.93;;
79670;SDS011;69137;50.878;8.050;2024-01-16T01:48:07;13.47;;;6.13;;
79670;SDS011;69137;50.878;8.050;2024-01-16T01:50:34;11.15;;;5.05;;
79670;SDS011;69137;50.878;8.050;2024-01-16T01:53:00;13.93;;;5.07;;
79670;SDS011;69137;50.878;8.050;2024-01-16T01:55:25;8.70;;;5.33;;
79670;SDS011;69137;50.878;8.050;2024-01-16T01:57:52;8.77;;;5.95;;
79670;SDS011;69137;50.878;8.050;2024-01-16T02:00:17;7.47;;;5.10;;
79670;SDS011;69137;50.878;8.050;2024-01-16T02:02:43;11.43;;;5.78;;
79670;SDS011;69137;50.878;8.050;2024-01-16T02:05:10;8.77;;;4.82;;
79670;SDS011;69137;50.878;8.050;2024-01-16T02:07:35;8.23;;;5.27;;
79670;SDS011;69137;50.878;8.050;2024-01-16T02:10:01;11.55;;;5.75;;
79670;SDS011;69137;50.878;8.050;2024-01-16T02:12:26;6.30;;;4.37;;
79670;SDS011;69137;50.878;8.050;2024-01-16T02:14:51;14.90;;;5.67;;
79670;SDS011;69137;50.878;8.050;2024-01-16T02:17:16;9.50;;;5.43;;
79670;SDS011;69137;50.878;8.050;2024-01-16T02:19:42;13.10;;;5.23;;
79670;SDS011;69137;50.878;8.050;2024-01-16T02:22:08;8.37;;;5.53;;
79670;SDS011;69137;50.878;8.050;2024-01-16T02:24:40;15.02;;;5.85;;
79670;SDS011;69137;50.878;8.050;2024-01-16T02:27:05;8.20;;;5.90;;
79670;SDS011;69137;50.878;8.050;2024-01-16T02:29:30;13.75;;;6.15;;
79670;SDS011;69137;50.878;8.050;2024-01-16T02:31:56;8.47;;;5.50;;
79670;SDS011;69137;50.878;8.050;2024-01-16T02:34:21;8.57;;;5.68;;
79670;SDS011;69137;50.878;8.050;2024-01-16T02:36:46;8.97;;;6.30;;
79670;SDS011;69137;50.878;8.050;2024-01-16T02:39:12;9.63;;;5.80;;
79670;SDS011;69137;50.878;8.050;2024-01-16T02:41:37;11.60;;;6.27;;
79670;SDS011;69137;50.878;8.050;2024-01-16T02:44:02;10.33;;;5.40;;
79670;SDS011;69137;50.878;8.050;2024-01-16T02:46:28;17.50;;;5.13;;
79670;SDS011;69137;50.878;8.050;2024-01-16T02:48:53;12.13;;;6.67;;
79670;SDS011;69137;50.878;8.050;2024-01-16T02:51:18;11.57;;;7.43;;
79670;SDS011;69137;50.878;8.050;2024-01-16T02:53:43;11.03;;;6.67;;
79670;SDS011;69137;50.878;8.050;2024-01-16T02:56:09;14.63;;;7.27;;
79670;SDS011;69137;50.878;8.050;2024-01-16T02:58:34;14.88;;;8.00;;
79670;SDS011;69137;50.878;8.050;2024-01-16T03:00:59;10.50;;;6.97;;
79670;SDS011;69137;50.878;8.050;2024-01-16T03:03:26;11.17;;;6.87;;
79670;SDS011;69137;50.878;8.050;2024-01-16T03:05:51;11.00;;;7.35;;
79670;SDS011;69137;50.878;8.050;2024-01-16T03:08:17;9.25;;;6.22;;
79670;SDS011;69137;50.878;8.050;2024-01-16T03:10:42;17.07;;;7.47;;
79670;SDS011;69137;50.878;8.050;2024-01-16T03:13:07;10.40;;;6.80;;
79670;SDS011;69137;50.878;8.050;2024-01-16T03:15:33;19.27;;;7.97;;
79670;SDS011;69137;50.878;8.050;2024-01-16T03:17:59;15.00;;;7.20;;
79670;SDS011;69137;50.878;8.050;2024-01-16T03:20:26;20.73;;;6.43;;
79670;SDS011;69137;50.878;8.050;2024-01-16T03:22:51;9.57;;;6.63;;
79670;SDS011;69137;50.878;8.050;2024-01-16T03:25:17;13.50;;;7.20;;
79670;SDS011;69137;50.878;8.050;2024-01-16T03:27:42;12.68;;;7.05;;
79670;SDS011;69137;50.878;8.050;2024-01-16T03:30:09;12.23;;;7.30;;
79670;SDS011;69137;50.878;8.050;2024-01-16T03:32:37;14.23;;;6.57;;
79670;SDS011;69137;50.878;8.050;2024-01-16T03:35:03;12.65;;;6.68;;
79670;SDS011;69137;50.878;8.050;2024-01-16T03:37:30;11.90;;;6.60;;
79670;SDS011;69137;50.878;8.050;2024-01-16T03:39:55;14.98;;;8.10;;
79670;SDS011;69137;50.878;8.050;2024-01-16T03:42:22;18.45;;;7.40;;
79670;SDS011;69137;50.878;8.050;2024-01-16T03:44:47;13.23;;;7.50;;
79670;SDS011;69137;50.878;8.050;2024-01-16T03:47:13;11.60;;;7.47;;
79670;SDS011;69137;50.878;8.050;2024-01-16T03:49:38;12.97;;;7.07;;
79670;SDS011;69137;50.878;8.050;2024-01-16T03:52:03;10.20;;;6.43;;
79670;SDS011;69137;50.878;8.050;2024-01-16T03:54:29;15.02;;;6.93;;
79670;SDS011;69137;50.878;8.050;2024-01-16T03:56:54;13.17;;;7.80;;
79670;SDS011;69137;50.878;8.050;2024-01-16T03:59:20;20.05;;;8.18;;
79670;SDS011;69137;50.878;8.050;2024-01-16T04:01:45;18.40;;;7.43;;
79670;SDS011;69137;50.878;8.050;2024-01-16T04:04:12;12.32;;;7.13;;
79670;SDS011;69137;50.878;8.050;2024-01-16T04:06:38;20.50;;;7.23;;
79670;SDS011;69137;50.878;8.050;2024-01-16T04:09:03;13.23;;;8.07;;
79670;SDS011;69137;50.878;8.050;2024-01-16T04:11:30;12.73;;;7.32;;
79670;SDS011;69137;50.878;8.050;2024-01-16T04:13:55;20.50;;;7.55;;
79670;SDS011;69137;50.878;8.050;2024-01-16T04:16:21;13.60;;;8.35;;
79670;SDS011;69137;50.878;8.050;2024-01-16T04:18:47;17.60;;;8.00;;
79670;SDS011;69137;50.878;8.050;2024-01-16T04:21:12;17.23;;;7.82;;
79670;SDS011;69137;50.878;8.050;2024-01-16T04:23:38;12.52;;;6.72;;
79670;SDS011;69137;50.878;8.050;2024-01-16T04:26:03;15.77;;;7.93;;
79670;SDS011;69137;50.878;8.050;2024-01-16T04:28:28;13.50;;;7.60;;
79670;SDS011;69137;50.878;8.050;2024-01-16T04:30:54;16.80;;;8.30;;
79670;SDS011;69137;50.878;8.050;2024-01-16T04:33:19;14.23;;;8.13;;
79670;SDS011;69137;50.878;8.050;2024-01-16T04:35:44;11.75;;;6.78;;
79670;SDS011;69137;50.878;8.050;2024-01-16T04:38:10;14.32;;;8.18;;
79670;SDS011;69137;50.878;8.050;2024-01-16T04:40:35;11.27;;;7.77;;
79670;SDS011;69137;50.878;8.050;2024-01-16T04:43:00;12.43;;;7.60;;
79670;SDS011;69137;50.878;8.050;2024-01-16T04:45:26;13.50;;;7.73;;
79670;SDS011;69137;50.878;8.050;2024-01-16T04:47:51;15.90;;;9.43;;
79670;SDS011;69137;50.878;8.050;2024-01-16T04:50:17;14.63;;;8.77;;
79670;SDS011;69137;50.878;8.050;2024-01-16T04:52:43;16.45;;;8.00;;
79670;SDS011;69137;50.878;8.050;2024-01-16T04:55:08;15.37;;;8.20;;
79670;SDS011;69137;50.878;8.050;2024-01-16T04:57:34;17.03;;;9.77;;
79670;SDS011;69137;50.878;8.050;2024-01-16T04:59:59;13.57;;;8.30;;
79670;SDS011;69137;50.878;8.050;2024-01-16T05:02:24;18.27;;;11.47;;
79670;SDS011;69137;50.878;8.050;2024-01-16T05:04:49;10.77;;;7.63;;
79670;SDS011;69137;50.878;8.050;2024-01-16T05:07:17;21.83;;;9.80;;
79670;SDS011;69137;50.878;8.050;2024-01-16T05:09:44;11.55;;;7.82;;
79670;SDS011;69137;50.878;8.050;2024-01-16T05:12:10;17.48;;;9.60;;
79670;SDS011;69137;50.878;8.050;2024-01-16T05:14:35;15.10;;;8.90;;
79670;SDS011;69137;50.878;8.050;2024-01-16T05:17:00;14.60;;;9.20;;
79670;SDS011;69137;50.878;8.050;2024-01-16T05:19:26;24.63;;;9.93;;
79670;SDS011;69137;50.878;8.050;2024-01-16T05:21:51;15.10;;;7.85;;
79670;SDS011;69137;50.878;8.050;2024-01-16T05:24:16;17.13;;;10.43;;
79670;SDS011;69137;50.878;8.050;2024-01-16T05:26:42;19.90;;;10.05;;
79670;SDS011;69137;50.878;8.050;2024-01-16T05:29:07;15.37;;;8.93;;
79670;SDS011;69137;50.878;8.050;2024-01-16T05:31:38;15.30;;;9.52;;
79670;SDS011;69137;50.878;8.050;2024-01-16T05:34:04;16.85;;;8.73;;
79670;SDS011;69137;50.878;8.050;2024-01-16T05:36:29;13.23;;;8.43;;
79670;SDS011;69137;50.878;8.050;2024-01-16T05:38:55;22.37;;;10.03;;
79670;SDS011;69137;50.878;8.050;2024-01-16T05:41:20;13.73;;;8.87;;
79670;SDS011;69137;50.878;8.050;2024-01-16T05:43:45;15.82;;;8.43;;
79670;SDS011;69137;50.878;8.050;2024-01-16T05:46:11;14.50;;;9.65;;
79670;SDS011;69137;50.878;8.050;2024-01-16T05:48:36;16.43;;;9.90;;
79670;SDS011;69137;50.878;8.050;2024-01-16T05:51:02;18.77;;;9.17;;
79670;SDS011;69137;50.878;8.050;2024-01-16T05:53:27;14.98;;;9.30;;
79670;SDS011;69137;50.878;8.050;2024-01-16T05:55:53;15.33;;;7.70;;
79670;SDS011;69137;50.878;8.050;2024-01-16T05:58:19;16.17;;;9.35;;
79670;SDS011;69137;50.878;8.050;2024-01-16T06:00:44;16.23;;;8.67;;
79670;SDS011;69137;50.878;8.050;2024-01-16T06:03:10;23.17;;;9.20;;
79670;SDS011;69137;50.878;8.050;2024-01-16T06:05:35;17.95;;;8.07;;
79670;SDS011;69137;50.878;8.050;2024-01-16T06:08:00;13.33;;;8.47;;
79670;SDS011;69137;50.878;8.050;2024-01-16T06:10:26;11.98;;;8.07;;
79670;SDS011;69137;50.878;8.050;2024-01-16T06:12:51;15.37;;;8.17;;
79670;SDS011;69137;50.878;8.050;2024-01-16T06:15:16;14.73;;;8.77;;
79670;SDS011;69137;50.878;8.050;2024-01-16T06:17:42;19.80;;;10.57;;
79670;SDS011;69137;50.878;8.050;2024-01-16T06:20:07;16.98;;;9.93;;
79670;SDS011;69137;50.878;8.050;2024-01-16T06:22:33;13.73;;;9.80;;
79670;SDS011;69137;50.878;8.050;2024-01-16T06:24:58;17.13;;;10.50;;
79670;SDS011;69137;50.878;8.050;2024-01-16T06:27:23;20.27;;;10.87;;
79670;SDS011;69137;50.878;8.050;2024-01-16T06:29:48;14.53;;;9.73;;
79670;SDS011;69137;50.878;8.050;2024-01-16T06:32:14;17.17;;;8.15;;
79670;SDS011;69137;50.878;8.050;2024-01-16T06:34:39;13.15;;;8.93;;
79670;SDS011;69137;50.878;8.050;2024-01-16T06:37:04;17.98;;;9.63;;
79670;SDS011;69137;50.878;8.050;2024-01-16T06:39:30;15.97;;;9.37;;
79670;SDS011;69137;50.878;8.050;2024-01-16T06:41:56;13.13;;;8.57;;
79670;SDS011;69137;50.878;8.050;2024-01-16T06:44:21;19.53;;;9.63;;
79670;SDS011;69137;50.878;8.050;2024-01-16T06:46:46;17.17;;;9.37;;
79670;SDS011;69137;50.878;8.050;2024-01-16T06:49:12;21.75;;;10.38;;
79670;SDS011;69137;50.878;8.050;2024-01-16T06:51:37;21.53;;;9.50;;
79670;SDS011;69137;50.878;8.050;2024-01-16T06:54:02;14.55;;;8.90;;
79670;SDS011;69137;50.878;8.050;2024-01-16T06:56:28;15.88;;;9.00;;
79670;SDS011;69137;50.878;8.050;2024-01-16T06:58:54;15.57;;;10.10;;
79670;SDS011;69137;50.878;8.050;2024-01-16T07:01:19;16.30;;;8.43;;
79670;SDS011;69137;50.878;8.050;2024-01-16T07:03:44;15.03;;;10.23;;
79670;SDS011;69137;50.878;8.050;2024-01-16T07:06:09;24.73;;;9.67;;
79670;SDS011;69137;50.878;8.050;2024-01-16T07:08:35;16.23;;;7.88;;
79670;SDS011;69137;50.878;8.050;2024-01-16T07:11:01;15.35;;;8.63;;
79670;SDS011;69137;50.878;8.050;2024-01-16T07:13:26;12.80;;;9.20;;
79670;SDS011;69137;50.878;8.050;2024-01-16T07:15:51;19.17;;;8.97;;
79670;SDS011;69137;50.878;8.050;2024-01-16T07:18:16;19.80;;;10.27;;
79670;SDS011;69137;50.878;8.050;2024-01-16T07:20:43;20.45;;;10.65;;
79670;SDS011;69137;50.878;8.050;2024-01-16T07:23:08;20.70;;;11.32;;
79670;SDS011;69137;50.878;8.050;2024-01-16T07:25:34;14.20;;;9.57;;
79670;SDS011;69137;50.878;8.050;2024-01-16T07:27:59;14.63;;;8.70;;
79670;SDS011;69137;50.878;8.050;2024-01-16T07:30:24;14.17;;;8.47;;
79670;SDS011;69137;50.878;8.050;2024-01-16T07:32:49;15.53;;;8.73;;
79670;SDS011;69137;50.878;8.050;2024-01-16T07:35:16;15.70;;;9.55;;
79670;SDS011;69137;50.878;8.050;2024-01-16T07:37:41;11.82;;;6.72;;
79670;SDS011;69137;50.878;8.050;2024-01-16T07:40:07;18.77;;;8.00;;
79670;SDS011;69137;50.878;8.050;2024-01-16T07:42:34;11.70;;;7.65;;
79670;SDS011;69137;50.878;8.050;2024-01-16T07:45:00;17.90;;;8.88;;
79670;SDS011;69137;50.878;8.050;2024-01-16T07:47:29;11.82;;;8.23;;
79670;SDS011;69137;50.878;8.050;2024-01-16T07:49:55;12.02;;;7.93;;
79670;SDS011;69137;50.878;8.050;2024-01-16T07:52:20;16.60;;;8.53;;
79670;SDS011;69137;50.878;8.050;2024-01-16T07:54:45;14.10;;;7.50;;
79670;SDS011;69137;50.878;8.050;2024-01-16T07:57:11;12.70;;;7.33;;
79670;SDS011;69137;50.878;8.050;2024-01-16T07:59:36;15.13;;;8.65;;
79670;SDS011;69137;50.878;8.050;2024-01-16T08:02:02;14.48;;;8.02;;
79670;SDS011;69137;50.878;8.050;2024-01-16T08:04:27;12.57;;;8.23;;
79670;SDS011;69137;50.878;8.050;2024-01-16T08:06:53;25.57;;;8.37;;
79670;SDS011;69137;50.878;8.050;2024-01-16T08:09:18;13.35;;;7.55;;
79670;SDS011;69137;50.878;8.050;2024-01-16T08:11:45;15.50;;;8.05;;
79670;SDS011;69137;50.878;8.050;2024-01-16T08:14:10;13.23;;;6.82;;
79670;SDS011;69137;50.878;8.050;2024-01-16T08:16:36;11.18;;;6.55;;
79670;SDS011;69137;50.878;8.050;2024-01-16T08:19:01;13.80;;;8.07;;
79670;SDS011;69137;50.878;8.050;2024-01-16T08:21:28;11.38;;;7.28;;
79670;SDS011;69137;50.878;8.050;2024-01-16T08:23:53;11.63;;;7.50;;
79670;SDS011;69137;50.878;8.050;2024-01-16T08:26:19;16.80;;;8.10;;
79670;SDS011;69137;50.878;8.050;2024-01-16T08:28:44;12.10;;;7.03;;
79670;SDS011;69137;50.878;8.050;2024-01-16T08:31:09;9.60;;;6.00;;
79670;SDS011;69137;50.878;8.050;2024-01-16T08:33:35;13.40;;;7.10;;
79670;SDS011;69137;50.878;8.050;2024-01-16T08:36:00;11.63;;;7.60;;
79670;SDS011;69137;50.878;8.050;2024-01-16T08:38:25;20.02;;;9.10;;
79670;SDS011;69137;50.878;8.050;2024-01-16T08:40:51;13.60;;;6.90;;
79670;SDS011;69137;50.878;8.050;2024-01-16T08:43:16;13.43;;;6.10;;
79670;SDS011;69137;50.878;8.050;2024-01-16T08:45:41;28.93;;;9.50;;
79670;SDS011;69137;50.878;8.050;2024-01-16T08:48:06;15.80;;;6.17;;
79670;SDS011;69137;50.878;8.050;2024-01-16T08:50:32;13.27;;;7.43;;
79670;SDS011;69137;50.878;8.050;2024-01-16T08:52:57;14.27;;;7.27;;
79670;SDS011;69137;50.878;8.050;2024-01-16T08:55:23;20.42;;;7.72;;
79670;SDS011;69137;50.878;8.050;2024-01-16T08:57:48;12.13;;;6.30;;
79670;SDS011;69137;50.878;8.050;2024-01-16T09:00:13;23.93;;;5.60;;
79670;SDS011;69137;50.878;8.050;2024-01-16T09:02:40;12.63;;;6.55;;
79670;SDS011;69137;50.878;8.050;2024-01-16T09:05:06;15.55;;;5.90;;
79670;SDS011;69137;50.878;8.050;2024-01-16T09:07:31;13.35;;;5.63;;
79670;SDS011;69137;50.878;8.050;2024-01-16T09:09:57;18.03;;;6.07;;
79670;SDS011;69137;50.878;8.050;2024-01-16T09:12:22;11.47;;;5.53;;
79670;SDS011;69137;50.878;8.050;2024-01-16T09:14:47;14.38;;;6.75;;
79670;SDS011;69137;50.878;8.050;2024-01-16T09:17:12;15.60;;;6.40;;
79670;SDS011;69137;50.878;8.050;2024-01-16T09:19:38;15.95;;;5.57;;
79670;SDS011;69137;50.878;8.050;2024-01-16T09:22:03;5.90;;;2.90;;
79670;SDS011;69137;50.878;8.050;2024-01-16T09:24:29;12.43;;;5.03;;
79670;SDS011;69137;50.878;8.050;2024-01-16T09:26:55;13.15;;;5.18;;
79670;SDS011;69137;50.878;8.050;2024-01-16T09:29:20;13.75;;;5.22;;
79670;SDS011;69137;50.878;8.050;2024-01-16T09:31:47;18.42;;;5.43;;
79670;SDS011;69137;50.878;8.050;2024-01-16T09:34:12;7.80;;;5.03;;
79670;SDS011;69137;50.878;8.050;2024-01-16T09:36:38;8.50;;;4.78;;
79670;SDS011;69137;50.878;8.050;2024-01-16T09:39:04;9.55;;;4.13;;
79670;SDS011;69137;50.878;8.050;2024-01-16T09:43:59;11.00;;;5.63;;
79670;SDS011;69137;50.878;8.050;2024-01-16T09:46:24;17.88;;;5.32;;
79670;SDS011;69137;50.878;8.050;2024-01-16T09:48:51;7.63;;;4.30;;
79670;SDS011;69137;50.878;8.050;2024-01-16T09:51:20;13.27;;;4.57;;
79670;SDS011;69137;50.878;8.050;2024-01-16T09:53:46;14.93;;;4.20;;
79670;SDS011;69137;50.878;8.050;2024-01-16T09:56:15;4.20;;;3.57;;
79670;SDS011;69137;50.878;8.050;2024-01-16T09:58:42;11.48;;;3.20;;
79670;SDS011;69137;50.878;8.050;2024-01-16T10:01:08;9.85;;;4.40;;
79670;SDS011;69137;50.878;8.050;2024-01-16T10:03:34;12.55;;;5.15;;
79670;SDS011;69137;50.878;8.050;2024-01-16T10:06:06;9.20;;;4.20;;
79670;SDS011;69137;50.878;8.050;2024-01-16T10:08:32;7.35;;;3.25;;
79670;SDS011;69137;50.878;8.050;2024-01-16T10:10:58;5.05;;;2.88;;
79670;SDS011;69137;50.878;8.050;2024-01-16T10:13:23;7.70;;;3.63;;
79670;SDS011;69137;50.878;8.050;2024-01-16T10:15:49;17.48;;;3.60;;
79670;SDS011;69137;50.878;8.050;2024-01-16T10:18:26;5.35;;;3.33;;
79670;SDS011;69137;50.878;8.050;2024-01-16T10:20:55;8.63;;;3.55;;
79670;SDS011;69137;50.878;8.050;2024-01-16T10:28:32;5.45;;;2.65;;
79670;SDS011;69137;50.878;8.050;2024-01-16T10:31:01;11.90;;;3.28;;
79670;SDS011;69137;50.878;8.050;2024-01-16T10:33:30;4.78;;;2.90;;
79670;SDS011;69137;50.878;8.050;2024-01-16T10:36:07;10.93;;;3.67;;
79670;SDS011;69137;50.878;8.050;2024-01-16T10:38:34;8.55;;;3.42;;
79670;SDS011;69137;50.878;8.050;2024-01-16T10:41:06;12.38;;;3.47;;
79670;SDS011;69137;50.878;8.050;2024-01-16T10:43:32;6.10;;;2.50;;
79670;SDS011;69137;50.878;8.050;2024-01-16T10:49:04;7.93;;;3.85;;
79670;SDS011;69137;50.878;8.050;2024-01-16T10:51:29;10.05;;;3.22;;
79670;SDS011;69137;50.878;8.050;2024-01-16T10:54:00;9.25;;;3.47;;
79670;SDS011;69137;50.878;8.050;2024-01-16T10:56:30;4.85;;;2.17;;
79670;SDS011;69137;50.878;8.050;2024-01-16T10:59:03;7.50;;;2.33;;
79670;SDS011;69137;50.878;8.050;2024-01-16T11:01:36;6.95;;;2.63;;
79670;SDS011;69137;50.878;8.050;2024-01-16T11:04:02;5.43;;;2.88;;
79670;SDS011;69137;50.878;8.050;2024-01-16T11:06:28;12.45;;;2.70;;
79670;SDS011;69137;50.878;8.050;2024-01-16T11:08:54;9.85;;;3.08;;
79670;SDS011;69137;50.878;8.050;2024-01-16T11:11:21;5.32;;;2.97;;
79670;SDS011;69137;50.878;8.050;2024-01-16T11:13:48;3.80;;;2.40;;
79670;SDS011;69137;50.878;8.050;2024-01-16T11:16:15;6.20;;;2.90;;
79670;SDS011;69137;50.878;8.050;2024-01-16T11:18:41;4.20;;;2.28;;
79670;SDS011;69137;50.878;8.050;2024-01-16T11:21:07;11.68;;;2.50;;
79670;SDS011;69137;50.878;8.050;2024-01-16T11:23:34;4.38;;;2.22;;
79670;SDS011;69137;50.878;8.050;2024-01-16T11:26:24;8.20;;;3.25;;
79670;SDS011;69137;50.878;8.050;2024-01-16T11:28:50;6.95;;;3.65;;
79670;SDS011;69137;50.878;8.050;2024-01-16T11:31:32;15.80;;;5.87;;
79670;SDS011;69137;50.878;8.050;2024-01-16T11:33:59;4.57;;;1.73;;
79670;SDS011;69137;50.878;8.050;2024-01-16T11:39:20;6.63;;;2.53;;
79670;SDS011;69137;50.878;8.050;2024-01-16T11:41:54;7.55;;;2.92;;
79670;SDS011;69137;50.878;8.050;2024-01-16T11:47:20;6.22;;;2.75;;
79670;SDS011;69137;50.878;8.050;2024-01-16T11:49:47;10.55;;;4.25;;
79670;SDS011;69137;50.878;8.050;2024-01-16T11:52:13;7.85;;;2.63;;
79670;SDS011;69137;50.878;8.050;2024-01-16T11:54:40;7.80;;;2.83;;
79670;SDS011;69137;50.878;8.050;2024-01-16T11:59:57;5.75;;;2.30;;
79670;SDS011;69137;50.878;8.050;2024-01-16T12:02:26;7.53;;;2.38;;
79670;SDS011;69137;50.878;8.050;2024-01-16T12:04:59;3.28;;;1.65;;
79670;SDS011;69137;50.878;8.050;2024-01-16T12:07:28;3.47;;;1.90;;
79670;SDS011;69137;50.878;8.050;2024-01-16T12:09:58;15.07;;;2.40;;
79670;SDS011;69137;50.878;8.050;2024-01-16T12:12:25;3.67;;;2.33;;
79670;SDS011;69137;50.878;8.050;2024-01-16T12:14:53;11.00;;;2.80;;
79670;SDS011;69137;50.878;8.050;2024-01-16T12:17:18;6.13;;;2.83;;
79670;SDS011;69137;50.878;8.050;2024-01-16T12:19:45;8.38;;;2.10;;
79670;SDS011;69137;50.878;8.050;2024-01-16T12:22:14;4.85;;;2.40;;
79670;SDS011;69137;50.878;8.050;2024-01-16T12:24:46;9.85;;;2.80;;
79670;SDS011;69137;50.878;8.050;2024-01-16T12:27:12;10.00;;;4.38;;
79670;SDS011;69137;50.878;8.050;2024-01-16T12:29:38;6.97;;;2.88;;
79670;SDS011;69137;50.878;8.050;2024-01-16T12:32:09;17.48;;;2.95;;
79670;SDS011;69137;50.878;8.050;2024-01-16T12:34:42;7.82;;;4.32;;
79670;SDS011;69137;50.878;8.050;2024-01-16T12:37:14;5.38;;;1.75;;
79670;SDS011;69137;50.878;8.050;2024-01-16T12:39:40;6.40;;;1.90;;
79670;SDS011;69137;50.878;8.050;2024-01-16T12:42:06;5.05;;;1.98;;
79670;SDS011;69137;50.878;8.050;2024-01-16T12:44:34;7.43;;;1.83;;
79670;SDS011;69137;50.878;8.050;2024-01-16T12:47:00;10.30;;;2.15;;
79670;SDS011;69137;50.878;8.050;2024-01-16T12:49:27;4.70;;;2.00;;
79670;SDS011;69137;50.878;8.050;2024-01-16T12:52:14;3.65;;;2.25;;
79670;SDS011;69137;50.878;8.050;2024-01-16T12:54:45;3.33;;;2.22;;
79670;SDS011;69137;50.878;8.050;2024-01-16T12:57:16;7.75;;;2.25;;
79670;SDS011;69137;50.878;8.050;2024-01-16T12:59:42;4.05;;;2.03;;
79670;SDS011;69137;50.878;8.050;2024-01-16T13:02:07;5.60;;;2.00;;
79670;SDS011;69137;50.878;8.050;2024-01-16T13:04:32;3.23;;;2.00;;
79670;SDS011;69137;50.878;8.050;2024-01-16T13:07:01;4.23;;;2.10;;
79670;SDS011;69137;50.878;8.050;2024-01-16T13:09:28;3.33;;;2.08;;
79670;SDS011;69137;50.878;8.050;2024-01-16T13:11:53;6.43;;;2.40;;
79670;SDS011;69137;50.878;8.050;2024-01-16T13:14:20;6.18;;;1.90;;
79670;SDS011;69137;50.878;8.050;2024-01-16T13:16:47;8.73;;;2.05;;
79670;SDS011;69137;50.878;8.050;2024-01-16T13:19:17;5.72;;;2.28;;
79670;SDS011;69137;50.878;8.050;2024-01-16T13:21:45;7.60;;;1.98;;
79670;SDS011;69137;50.878;8.050;2024-01-16T13:24:11;6.07;;;2.45;;
79670;SDS011;69137;50.878;8.050;2024-01-16T13:26:38;7.75;;;2.30;;
79670;SDS011;69137;50.878;8.050;2024-01-16T13:29:04;17.98;;;3.00;;
79670;SDS011;69137;50.878;8.050;2024-01-16T13:31:31;5.35;;;2.17;;
79670;SDS011;69137;50.878;8.050;2024-01-16T13:33:56;12.65;;;3.60;;
79670;SDS011;69137;50.878;8.050;2024-01-16T13:36:21;7.60;;;3.33;;
79670;SDS011;69137;50.878;8.050;2024-01-16T13:38:47;4.18;;;2.55;;
79670;SDS011;69137;50.878;8.050;2024-01-16T13:41:13;5.10;;;1.83;;
79670;SDS011;69137;50.878;8.050;2024-01-16T13:43:39;6.93;;;3.17;;
79670;SDS011;69137;50.878;8.050;2024-01-16T13:46:04;9.10;;;3.00;;
79670;SDS011;69137;50.878;8.050;2024-01-16T13:48:30;6.97;;;2.10;;
79670;SDS011;69137;50.878;8.050;2024-01-16T13:50:55;3.67;;;2.27;;
79670;SDS011;69137;50.878;8.050;2024-01-16T13:53:20;7.60;;;2.50;;
79670;SDS011;69137;50.878;8.050;2024-01-16T13:55:45;2.90;;;1.57;;
79670;SDS011;69137;50.878;8.050;2024-01-16T13:58:11;6.93;;;2.00;;
79670;SDS011;69137;50.878;8.050;2024-01-16T14:00:36;4.17;;;2.47;;
79670;SDS011;69137;50.878;8.050;2024-01-16T14:03:01;8.18;;;2.22;;
79670;SDS011;69137;50.878;8.050;2024-01-16T14:05:28;11.50;;;2.58;;
79670;SDS011;69137;50.878;8.050;2024-01-16T14:07:53;6.07;;;2.30;;
79670;SDS011;69137;50.878;8.050;2024-01-16T14:10:20;3.35;;;1.55;;
79670;SDS011;69137;50.878;8.050;2024-01-16T14:12:47;8.77;;;2.55;;
79670;SDS011;69137;50.878;8.050;2024-01-16T14:15:14;6.75;;;2.30;;
79670;SDS011;69137;50.878;8.050;2024-01-16T14:17:48;3.08;;;1.73;;
79670;SDS011;69137;50.878;8.050;2024-01-16T14:20:14;5.95;;;2.03;;
79670;SDS011;69137;50.878;8.050;2024-01-16T14:22:41;3.70;;;1.67;;
79670;SDS011;69137;50.878;8.050;2024-01-16T14:25:07;4.53;;;2.08;;
79670;SDS011;69137;50.878;8.050;2024-01-16T14:27:42;3.33;;;1.92;;
79670;SDS011;69137;50.878;8.050;2024-01-16T14:30:10;4.03;;;1.70;;
79670;SDS011;69137;50.878;8.050;2024-01-16T14:32:37;7.07;;;2.75;;
79670;SDS011;69137;50.878;8.050;2024-01-16T14:35:04;4.88;;;2.00;;
79670;SDS011;69137;50.878;8.050;2024-01-16T14:37:30;6.65;;;2.58;;
79670;SDS011;69137;50.878;8.050;2024-01-16T14:39:57;6.68;;;2.65;;
79670;SDS011;69137;50.878;8.050;2024-01-16T14:42:26;5.82;;;2.38;;
79670;SDS011;69137;50.878;8.050;2024-01-16T14:44:51;8.90;;;2.42;;
79670;SDS011;69137;50.878;8.050;2024-01-16T14:47:16;7.37;;;2.40;;
79670;SDS011;69137;50.878;8.050;2024-01-16T14:49:43;4.00;;;2.70;;
79670;SDS011;69137;50.878;8.050;2024-01-16T14:52:08;7.57;;;2.70;;